This is the latest recevied weather packets stored in our database for station/object VA7IS. If no packets are shown the sender has not sent any weather packets the latest 10 day(s).
| Time | Temp. | Humidity | Pressure | Rain* | Wind** | Luminosity | Snow |
|---|---|---|---|---|---|---|---|
| 1777953605 | 20° C | 51% | 1007.2 hPa | 0 mm | - | - | - |
| 1777950905 | 21.67° C | 48% | 1006.8 hPa | 0 mm | - | - | - |
| 1777950005 | 22.78° C | 46% | 1006.8 hPa | 0 mm | - | - | - |
| 1777946104 | 25.56° C | 35% | 1006.8 hPa | 0 mm | - | - | - |
| 1777941004 | 27.78° C | 28% | 1006.9 hPa | 0 mm | - | - | - |
| 1777940704 | 27.78° C | 28% | 1006.9 hPa | 0 mm | - | - | - |
| 1777936204 | 28.33° C | 27% | 1007.4 hPa | 0 mm | - | - | - |
| 1777934404 | 28.89° C | 29% | 1007.6 hPa | 0 mm | - | - | - |
| 1777934105 | 28.89° C | 28% | 1007.6 hPa | 0 mm | - | - | - |
| 1777932905 | 28.89° C | 29% | 1007.7 hPa | 0 mm | - | - | - |
| 1777930504 | 27.78° C | 32% | 1007.9 hPa | 0 mm | - | - | - |
| 1777929904 | 27.22° C | 33% | 1008 hPa | 0 mm | - | - | - |
| 1777926304 | 27.22° C | 33% | 1008.3 hPa | 0 mm | - | - | - |
| 1777926004 | 26.67° C | 34% | 1008.4 hPa | 0 mm | - | - | - |
| 1777923605 | 26.11° C | 36% | 1008.6 hPa | 0 mm | - | - | - |
| 1777923304 | 26.11° C | 37% | 1008.6 hPa | 0 mm | - | - | - |
| 1777921205 | 25.56° C | 37% | 1008.7 hPa | 0 mm | - | - | - |
| 1777920604 | 25.56° C | 37% | 1008.7 hPa | 0 mm | - | - | - |
| 1777920004 | 25.56° C | 37% | 1008.8 hPa | 0 mm | - | - | - |
| 1777919104 | 24.44° C | 40% | 1008.7 hPa | 0 mm | - | - | - |
| 1777917904 | 25° C | 40% | 1008.9 hPa | 0 mm | - | - | - |
| 1777916104 | 23.33° C | 44% | 1008.8 hPa | 0 mm | - | - | - |
| 1777915504 | 23.33° C | 44% | 1009 hPa | 0 mm | - | - | - |
| 1777913704 | 22.22° C | 46% | 1009 hPa | 0 mm | - | - | - |
| 1777911305 | 19.44° C | 55% | 1009.3 hPa | 0 mm | - | - | - |
* Rain latest hour (hover to see other rain measurements)
** Current wind speed in m/s (hover to see current wind gust speed)